메인 페이지
METAR-TAF:

METAR-TAF

공항 :

펜서콜라, 플로리다, 미국

위도: 30-21-22N, 경도: 087-19-24W, 고도: 9m

현재 날씨관측

예보는 1 시간 9분 전, 13:56시(UTC)에 발표되었습니다.
5kt
온도 29°C
습도 58%
기압 1017 hPa
시정: 16.1km
맑음

METAR: KNPA 301356Z AUTO 35005KT 10SM CLR 29/20 A3004 RMK AO2 SLP175 T02890200

시각: 10:05 (15:05 UTC)

예보

예보 대상 시간: 29일 23시부터 30일 23시까지 (UTC)
5kt
시정 10km 이상
고도 3500ft 상공 구름 조금
고도 18000ft 상공 구름 많음
고도 25000ft 상공 구름 많음
30일 0100시부터 (UTC)
여러 방향의 바람 3kt
시정 10km 이상
고도 3500ft 상공 구름 보통
고도 12000ft 상공 구름 보통
고도 18000ft 상공 구름 많음
고도 25000ft 상공 흐림
30일 0300시부터 (UTC)
여러 방향의 바람 2kt
시정 10km 이상
고도 1500ft 상공 구름 보통
고도 3500ft 상공 구름 많음
고도 12000ft 상공 구름 많음
고도 25000ft 상공 흐림
시계 내 소나기
30일 1800시부터 (UTC)
7kt
시정 10km 이상
고도 3500ft 상공 구름 보통
고도 12000ft 상공 구름 많음
고도 25000ft 상공 구름 많음
30일 2100시부터 (UTC)
남남서10kt
시정: 3115m
고도 4000ft 상공 구름 보통
고도 12000ft 상공 구름 보통
고도 25000ft 상공 구름 많음

TAF: KNPA 2923/3023 17005KT 9999 FEW035 BKN180 BKN250 QNH2995INS FM300100 VRB03KT 9999 SCT035 SCT120 BKN180 OVC250 QNH2996INS FM300300 VRB02KT 9999 VCSH SCT015 BKN035 BKN120 OVC250 QNH2997INS FM301800 17007KT 9999 SCT035 BKN120 BKN250 QNH3000INS FM302100 21010KT 9999 SCT040 SCT120 BKN250 QNH2995INS LAST NO AMDS AFT 3001 NEXT 3107 AUTOMATED SENSOR METWATCH 3003 TIL 3115 T23/3012Z T30/3018Z FN20034

4,000개 이상의 공항 관측 자료 및 예보 (METAR 및 TAF 보고).

지도상에서 검색 가능한 기상관측소가 노란 점과 빨간 점으로 표시되어 있습니다.

기상관측소 명을 보려면 표시 위로 마우스를 이동하세요.

날씨 관측과 예보를 보려면 클릭하세요.

지도 변경 : 확대하려면 엑스 표시가 있는 녹색 버튼, 축소하려면 빼기 표시가 있는 녹색 버튼, 다음 페이지의 지도를 보려면 녹색 화살표를 클릭하세요.


METAR-TAF: